createdAt,value
2023-01-19T00:00:35.974Z,8.77
2023-01-19T00:03:04.680Z,8.53
2023-01-19T00:05:31.925Z,7.87
2023-01-19T00:08:14.517Z,8.53
2023-01-19T00:10:47.479Z,9.20
2023-01-19T00:13:15.241Z,7.97
2023-01-19T00:15:42.190Z,6.57
2023-01-19T00:18:10.570Z,7.80
2023-01-19T00:20:38.192Z,8.50
2023-01-19T00:23:05.655Z,7.50
2023-01-19T00:25:32.380Z,7.20
2023-01-19T00:28:01.538Z,7.57
2023-01-19T00:30:28.762Z,6.03
2023-01-19T00:32:55.967Z,7.90
2023-01-19T00:35:22.769Z,7.90
2023-01-19T00:37:49.580Z,7.83
2023-01-19T00:40:17.076Z,7.70
2023-01-19T00:42:48.540Z,7.40
2023-01-19T00:45:16.684Z,8.50
2023-01-19T00:47:43.419Z,7.53
2023-01-19T00:50:11.840Z,8.27
2023-01-19T00:52:39.795Z,7.70
2023-01-19T00:55:08.264Z,8.17
2023-01-19T00:57:35.468Z,7.90
2023-01-19T01:00:07.143Z,8.30
2023-01-19T01:02:34.613Z,7.83
2023-01-19T01:05:02.936Z,8.70
2023-01-19T01:07:30.739Z,8.67
2023-01-19T01:09:57.599Z,8.07
2023-01-19T01:12:24.552Z,8.53
2023-01-19T01:14:51.298Z,7.60
2023-01-19T01:17:18.120Z,8.00
2023-01-19T01:19:44.862Z,7.67
2023-01-19T01:22:11.803Z,7.50
2023-01-19T01:24:38.556Z,6.87
2023-01-19T01:27:05.260Z,6.63
2023-01-19T01:29:35.349Z,6.37
2023-01-19T01:32:02.506Z,7.20
2023-01-19T01:34:29.235Z,6.90
2023-01-19T01:36:55.941Z,7.37
2023-01-19T01:39:22.672Z,6.47
2023-01-19T01:41:49.489Z,6.10
2023-01-19T01:45:06.103Z,7.07
2023-01-19T01:47:46.657Z,6.23
2023-01-19T01:50:20.808Z,7.50
2023-01-19T01:53:11.000Z,6.13
2023-01-19T01:55:43.297Z,5.87
2023-01-19T01:58:11.375Z,6.90
2023-01-19T02:00:58.876Z,6.77
2023-01-19T02:03:26.915Z,6.53
2023-01-19T02:05:57.601Z,6.20
2023-01-19T02:08:55.965Z,5.97
2023-01-19T02:11:42.171Z,5.93
2023-01-19T02:14:09.013Z,5.33
2023-01-19T02:16:37.555Z,6.17
2023-01-19T02:19:07.659Z,5.67
2023-01-19T02:21:59.803Z,5.60
2023-01-19T02:24:27.467Z,4.90
2023-01-19T02:26:55.195Z,4.63
2023-01-19T02:29:25.020Z,4.90
2023-01-19T02:31:52.777Z,5.87
2023-01-19T02:34:20.993Z,4.63
2023-01-19T02:36:58.489Z,5.20
2023-01-19T02:39:37.015Z,4.70
2023-01-19T02:42:09.709Z,5.20
2023-01-19T02:44:37.747Z,6.50
2023-01-19T02:47:04.939Z,4.73
2023-01-19T02:49:31.909Z,5.20
2023-01-19T02:52:01.044Z,5.47
2023-01-19T02:55:18.136Z,5.40
2023-01-19T02:58:23.103Z,4.90
2023-01-19T03:01:08.543Z,4.90
2023-01-19T03:03:56.599Z,4.90
2023-01-19T03:06:34.791Z,4.17
2023-01-19T03:09:38.400Z,4.03
2023-01-19T03:12:14.175Z,4.73
2023-01-19T03:14:46.530Z,3.87
2023-01-19T03:17:17.081Z,4.80
2023-01-19T03:19:48.078Z,4.40
2023-01-19T03:22:21.524Z,4.43
2023-01-19T03:24:49.571Z,3.73
2023-01-19T03:27:40.673Z,4.07
2023-01-19T03:30:13.312Z,3.70
2023-01-19T03:32:47.845Z,3.43
2023-01-19T03:35:16.320Z,3.60
2023-01-19T03:37:46.051Z,3.00
2023-01-19T03:40:14.085Z,2.83
2023-01-19T03:42:42.297Z,2.90
2023-01-19T03:45:10.340Z,2.67
2023-01-19T03:47:37.421Z,2.30
2023-01-19T03:50:07.921Z,2.00
2023-01-19T03:52:34.692Z,1.87
2023-01-19T03:55:03.865Z,1.00
2023-01-19T03:57:31.393Z,0.80
2023-01-19T03:59:58.424Z,0.60
2023-01-19T04:02:25.251Z,0.57
2023-01-19T04:04:52.069Z,0.80
2023-01-19T04:07:18.776Z,0.50
2023-01-19T04:09:45.463Z,0.80
2023-01-19T04:12:12.229Z,0.40
2023-01-19T04:14:38.959Z,0.70
2023-01-19T04:17:05.828Z,0.60
2023-01-19T04:19:32.678Z,0.90
2023-01-19T04:21:59.776Z,0.60
2023-01-19T04:24:27.597Z,0.50
2023-01-19T04:26:54.323Z,0.60
2023-01-19T04:29:21.096Z,0.60
2023-01-19T04:31:47.882Z,0.60
2023-01-19T04:34:14.668Z,0.70
2023-01-19T04:36:41.482Z,0.43
2023-01-19T04:39:09.212Z,0.50
2023-01-19T04:41:35.904Z,0.40
2023-01-19T04:44:02.756Z,0.30
2023-01-19T04:46:29.541Z,0.40
2023-01-19T04:48:56.291Z,0.30
2023-01-19T04:51:23.044Z,0.30
2023-01-19T04:53:49.742Z,0.80
2023-01-19T04:56:16.468Z,0.43
2023-01-19T04:58:43.245Z,0.40
2023-01-19T05:01:10.422Z,0.70
2023-01-19T05:03:37.149Z,0.53
2023-01-19T05:06:04.030Z,0.70
2023-01-19T05:08:30.794Z,0.70
2023-01-19T05:10:57.970Z,0.97
2023-01-19T05:13:24.711Z,0.70
2023-01-19T05:15:51.473Z,0.90
2023-01-19T05:18:18.657Z,1.10
2023-01-19T05:20:45.797Z,0.97
2023-01-19T05:23:12.634Z,1.00
2023-01-19T05:25:39.315Z,0.90
2023-01-19T05:28:06.081Z,1.03
2023-01-19T05:30:32.839Z,1.10
2023-01-19T05:32:59.943Z,1.63
2023-01-19T05:35:35.524Z,1.80
2023-01-19T05:38:02.724Z,1.50
2023-01-19T05:40:29.500Z,1.40
2023-01-19T05:43:00.677Z,1.57
2023-01-19T05:45:28.415Z,1.77
2023-01-19T05:47:55.335Z,2.10
2023-01-19T05:50:22.332Z,1.43
2023-01-19T05:52:49.268Z,1.60
2023-01-19T05:55:16.580Z,1.37
2023-01-19T05:57:43.430Z,1.47
2023-01-19T06:00:10.920Z,1.47
2023-01-19T06:02:37.667Z,1.10
2023-01-19T06:05:04.776Z,1.40
2023-01-19T06:07:34.250Z,1.20
2023-01-19T06:10:01.317Z,1.20
2023-01-19T06:12:28.202Z,1.50
2023-01-19T06:14:54.946Z,1.43
2023-01-19T06:17:21.831Z,1.20
2023-01-19T06:19:48.531Z,1.33
2023-01-19T06:22:15.412Z,1.23
2023-01-19T06:24:42.190Z,1.50
2023-01-19T06:27:09.199Z,1.53
2023-01-19T06:29:36.059Z,1.43
2023-01-19T06:32:03.254Z,1.07
2023-01-19T06:34:29.971Z,2.17
2023-01-19T06:36:56.969Z,1.43
2023-01-19T06:39:24.271Z,2.00
2023-01-19T06:41:51.798Z,2.77
2023-01-19T06:44:18.477Z,2.43
2023-01-19T06:46:45.163Z,2.80
2023-01-19T06:49:11.888Z,2.93
2023-01-19T06:51:38.938Z,3.43
2023-01-19T06:54:05.794Z,3.53
2023-01-19T06:56:32.810Z,3.67
2023-01-19T06:58:59.577Z,4.17
2023-01-19T07:01:27.031Z,4.20
2023-01-19T07:03:54.604Z,4.17
2023-01-19T07:06:21.333Z,4.73
2023-01-19T07:08:48.176Z,5.27
2023-01-19T07:11:25.949Z,5.10
2023-01-19T07:13:59.267Z,4.67
2023-01-19T07:16:26.301Z,5.57
2023-01-19T07:18:53.167Z,5.73
2023-01-19T07:21:20.352Z,6.20
2023-01-19T07:23:52.408Z,6.63
2023-01-19T07:26:21.342Z,7.40
2023-01-19T07:28:48.994Z,7.53
2023-01-19T07:31:16.388Z,8.13
2023-01-19T07:33:43.168Z,8.50
2023-01-19T07:36:10.257Z,8.20
2023-01-19T07:38:36.999Z,9.17
2023-01-19T07:41:08.003Z,8.77
2023-01-19T07:43:35.460Z,9.17
2023-01-19T07:46:04.256Z,8.50
2023-01-19T07:48:31.366Z,10.93
2023-01-19T07:51:05.884Z,8.13
2023-01-19T07:53:32.922Z,9.30
2023-01-19T07:55:59.867Z,8.50
2023-01-19T07:58:27.192Z,8.67
2023-01-19T08:00:54.057Z,8.80
2023-01-19T08:03:20.928Z,9.67
2023-01-19T08:05:52.790Z,8.47
2023-01-19T08:08:20.273Z,8.50
2023-01-19T08:10:50.482Z,9.03
2023-01-19T08:13:17.282Z,9.70
2023-01-19T08:15:44.299Z,8.87
2023-01-19T08:18:11.649Z,8.33
2023-01-19T08:20:38.523Z,7.97
2023-01-19T08:23:05.528Z,7.77
2023-01-19T08:25:34.967Z,7.17
2023-01-19T08:28:02.577Z,6.87
2023-01-19T08:30:30.312Z,7.20
2023-01-19T08:33:03.937Z,5.77
2023-01-19T08:35:32.027Z,6.67
2023-01-19T08:38:01.369Z,5.93
2023-01-19T08:40:29.815Z,6.20
2023-01-19T08:43:16.446Z,5.37
2023-01-19T08:45:49.132Z,5.93
2023-01-19T08:48:18.738Z,6.63
2023-01-19T08:50:49.620Z,6.27
2023-01-19T08:53:17.031Z,6.90
2023-01-19T08:55:43.811Z,6.80
2023-01-19T08:58:10.767Z,6.83
2023-01-19T09:00:39.147Z,6.80
2023-01-19T09:03:08.231Z,7.73
2023-01-19T09:05:37.460Z,7.53
2023-01-19T09:08:08.176Z,8.20
2023-01-19T09:10:36.190Z,7.77
2023-01-19T09:13:08.355Z,7.67
2023-01-19T09:15:37.660Z,7.73
2023-01-19T09:18:06.942Z,8.33
2023-01-19T09:20:36.078Z,8.90
2023-01-19T09:23:02.922Z,9.17
2023-01-19T09:25:29.815Z,8.57
2023-01-19T09:27:56.652Z,10.27
2023-01-19T09:30:23.369Z,11.70
2023-01-19T09:32:50.071Z,12.10
2023-01-19T09:35:16.943Z,12.07
2023-01-19T09:37:47.494Z,14.03
2023-01-19T09:40:15.780Z,12.30
2023-01-19T09:42:57.566Z,13.67
2023-01-19T09:46:01.559Z,13.17
2023-01-19T09:48:53.245Z,12.87
2023-01-19T09:51:28.899Z,12.43
2023-01-19T09:54:00.116Z,12.60
2023-01-19T09:56:29.168Z,12.17
2023-01-19T09:58:55.962Z,12.70
2023-01-19T10:01:35.316Z,12.90
2023-01-19T10:04:23.339Z,12.63
2023-01-19T10:06:52.101Z,11.47
2023-01-19T10:10:06.868Z,10.97
2023-01-19T10:12:43.698Z,10.80
2023-01-19T10:15:45.248Z,9.67
2023-01-19T10:18:33.095Z,10.40
2023-01-19T10:21:10.585Z,9.27
2023-01-19T10:23:55.671Z,9.07
2023-01-19T10:26:33.871Z,8.40
2023-01-19T10:29:37.640Z,8.77
2023-01-19T10:32:12.552Z,7.90
2023-01-19T10:34:41.566Z,8.50
2023-01-19T10:37:30.289Z,7.23
2023-01-19T10:40:22.625Z,8.20
2023-01-19T10:42:49.921Z,7.37
2023-01-19T10:45:19.148Z,7.30
2023-01-19T10:47:47.465Z,7.40
2023-01-19T10:50:23.663Z,7.70
2023-01-19T10:52:53.572Z,7.23
2023-01-19T10:55:38.044Z,7.87
2023-01-19T10:58:06.403Z,6.93
2023-01-19T11:00:37.790Z,6.63
2023-01-19T11:03:22.449Z,7.17
2023-01-19T11:05:49.315Z,7.00
2023-01-19T11:08:43.277Z,6.93
2023-01-19T11:11:12.461Z,6.90
2023-01-19T11:13:43.130Z,6.60
2023-01-19T11:16:30.762Z,6.93
2023-01-19T11:18:58.739Z,6.60
2023-01-19T11:21:28.438Z,5.30
2023-01-19T11:23:58.320Z,6.37
2023-01-19T11:26:26.956Z,5.93
2023-01-19T11:28:56.109Z,5.63
2023-01-19T11:31:29.067Z,6.03
2023-01-19T11:34:01.080Z,5.73
2023-01-19T11:36:29.055Z,5.93
2023-01-19T11:38:59.269Z,5.80
2023-01-19T11:41:27.419Z,5.47
2023-01-19T11:44:02.782Z,6.07
2023-01-19T11:46:34.854Z,5.70
2023-01-19T11:49:28.084Z,5.37
2023-01-19T11:52:26.168Z,5.30
2023-01-19T11:55:02.610Z,4.93
2023-01-19T11:57:29.388Z,5.73
2023-01-19T11:59:58.660Z,5.37
2023-01-19T12:02:46.256Z,4.93
2023-01-19T12:05:18.599Z,5.47
2023-01-19T12:07:47.411Z,5.63
2023-01-19T12:10:22.939Z,5.03
2023-01-19T12:12:51.041Z,5.40
2023-01-19T12:15:25.484Z,5.37
2023-01-19T12:17:55.433Z,5.43
2023-01-19T12:20:40.323Z,5.47
2023-01-19T12:23:25.403Z,5.63
2023-01-19T12:26:16.513Z,5.17
2023-01-19T12:28:46.863Z,5.37
2023-01-19T12:31:20.052Z,6.03
2023-01-19T12:33:47.020Z,5.80
2023-01-19T12:36:38.691Z,5.40
2023-01-19T12:39:17.159Z,5.47
2023-01-19T12:41:44.269Z,5.50
2023-01-19T12:44:11.225Z,6.37
2023-01-19T12:46:40.446Z,5.80
2023-01-19T12:49:26.344Z,5.97
2023-01-19T12:52:11.748Z,5.00
2023-01-19T12:55:09.714Z,5.60
2023-01-19T12:57:41.163Z,5.40
2023-01-19T13:00:28.293Z,5.17
2023-01-19T13:03:00.646Z,4.87
2023-01-19T13:05:39.616Z,5.37
2023-01-19T13:08:06.619Z,5.47
2023-01-19T13:11:10.899Z,5.50
2023-01-19T13:13:56.369Z,5.33
2023-01-19T13:16:24.872Z,5.60
2023-01-19T13:19:22.449Z,5.87
2023-01-19T13:21:49.611Z,5.60
2023-01-19T13:24:20.871Z,5.97
2023-01-19T13:26:50.360Z,6.10
2023-01-19T13:29:22.705Z,6.07
2023-01-19T13:31:49.645Z,6.27
2023-01-19T13:34:22.550Z,7.00
2023-01-19T13:36:54.979Z,7.10
2023-01-19T13:39:40.840Z,6.93
2023-01-19T13:42:16.237Z,6.50
2023-01-19T13:44:52.291Z,6.70
2023-01-19T13:47:23.877Z,7.20
2023-01-19T13:49:55.841Z,7.37
2023-01-19T13:52:30.433Z,8.10
2023-01-19T13:55:03.762Z,8.17
2023-01-19T13:57:45.611Z,8.73
2023-01-19T14:00:12.733Z,8.73
2023-01-19T14:02:41.137Z,9.30
2023-01-19T14:05:28.569Z,7.97
2023-01-19T14:08:08.698Z,7.77
2023-01-19T14:10:38.015Z,8.27
2023-01-19T14:13:12.926Z,8.63
2023-01-19T14:15:40.839Z,8.80
2023-01-19T14:18:18.767Z,8.93
2023-01-19T14:21:04.080Z,9.07
2023-01-19T14:23:51.727Z,8.57
2023-01-19T14:26:54.003Z,8.90
2023-01-19T14:29:34.815Z,8.53
2023-01-19T14:32:01.481Z,9.13
2023-01-19T14:34:34.396Z,9.17
2023-01-19T14:37:03.251Z,7.10
2023-01-19T14:39:33.251Z,6.70
2023-01-19T14:42:03.129Z,6.67
2023-01-19T14:44:33.812Z,5.90
2023-01-19T14:47:01.403Z,4.67
2023-01-19T14:49:46.892Z,4.50
2023-01-19T14:52:41.300Z,4.70
2023-01-19T14:55:20.719Z,5.03
2023-01-19T14:57:48.411Z,6.50
2023-01-19T15:00:20.410Z,8.83
2023-01-19T15:02:47.570Z,10.80
2023-01-19T15:05:14.817Z,11.23
2023-01-19T15:07:44.764Z,11.70
2023-01-19T15:10:21.208Z,11.73
2023-01-19T15:12:49.984Z,12.03
2023-01-19T15:15:19.867Z,12.10
2023-01-19T15:17:46.716Z,12.17
2023-01-19T15:20:19.251Z,12.23
2023-01-19T15:22:46.276Z,13.33
2023-01-19T15:25:18.179Z,12.57
2023-01-19T15:27:46.031Z,13.17
2023-01-19T15:30:27.759Z,12.67
2023-01-19T15:32:54.581Z,12.33
2023-01-19T15:35:23.849Z,12.73
2023-01-19T15:37:51.135Z,12.90
2023-01-19T15:40:20.022Z,12.57
2023-01-19T15:42:46.766Z,13.13
2023-01-19T15:45:38.794Z,12.53
2023-01-19T15:48:11.176Z,12.70
2023-01-19T15:50:41.021Z,13.40
2023-01-19T15:53:11.830Z,12.33
2023-01-19T15:55:38.608Z,13.87
2023-01-19T15:58:05.400Z,12.70
2023-01-19T16:00:34.176Z,14.20
2023-01-19T16:03:02.540Z,13.27
2023-01-19T16:05:42.011Z,12.67
2023-01-19T16:08:09.932Z,13.97
2023-01-19T16:10:38.887Z,13.63
2023-01-19T16:13:05.837Z,13.17
2023-01-19T16:15:35.955Z,13.20
2023-01-19T16:18:04.085Z,11.93
2023-01-19T16:20:30.811Z,13.33
2023-01-19T16:23:09.674Z,13.53
2023-01-19T16:25:40.805Z,13.57
2023-01-19T16:28:08.893Z,12.97
2023-01-19T16:30:35.838Z,13.23
2023-01-19T16:33:02.739Z,13.57
2023-01-19T16:35:29.511Z,14.50
2023-01-19T16:37:56.297Z,12.90
2023-01-19T16:40:23.186Z,14.03
2023-01-19T16:42:50.703Z,12.63
2023-01-19T16:45:17.471Z,13.37
2023-01-19T16:47:45.494Z,12.73
2023-01-19T16:50:12.785Z,12.63
2023-01-19T16:52:39.776Z,12.37
2023-01-19T16:55:11.161Z,12.33
2023-01-19T16:57:41.200Z,12.47
2023-01-19T17:00:10.481Z,12.53
2023-01-19T17:02:37.629Z,12.43
2023-01-19T17:05:04.890Z,13.10
2023-01-19T17:07:31.662Z,13.43
2023-01-19T17:09:58.382Z,12.73
2023-01-19T17:12:25.225Z,12.87
2023-01-19T17:14:52.028Z,13.37
2023-01-19T17:17:18.824Z,13.60
2023-01-19T17:19:45.642Z,13.43
2023-01-19T17:22:13.461Z,11.63
2023-01-19T17:24:42.547Z,13.83
2023-01-19T17:27:10.067Z,12.60
2023-01-19T17:29:36.904Z,13.27
2023-01-19T17:32:04.209Z,12.90
2023-01-19T17:34:31.041Z,13.20
2023-01-19T17:37:02.891Z,13.87
2023-01-19T17:39:30.024Z,13.20
2023-01-19T17:41:57.082Z,14.23
2023-01-19T17:44:24.190Z,14.30
2023-01-19T17:46:51.171Z,13.77
2023-01-19T17:49:17.985Z,13.17
2023-01-19T17:51:44.911Z,13.17
2023-01-19T17:54:12.537Z,13.90
2023-01-19T17:56:41.321Z,13.77
2023-01-19T17:59:08.533Z,14.43
2023-01-19T18:01:39.740Z,13.63
2023-01-19T18:04:08.198Z,14.07
2023-01-19T18:06:35.069Z,13.37
2023-01-19T18:09:01.826Z,14.00
2023-01-19T18:11:29.041Z,12.97
2023-01-19T18:13:55.841Z,14.97
2023-01-19T18:16:25.509Z,14.40
2023-01-19T18:18:53.779Z,15.57
2023-01-19T18:21:22.252Z,15.47
2023-01-19T18:23:50.491Z,15.13
2023-01-19T18:26:20.385Z,14.07
2023-01-19T18:28:48.557Z,13.33
2023-01-19T18:31:18.700Z,14.47
2023-01-19T18:33:47.286Z,14.27
2023-01-19T18:36:14.631Z,14.67
2023-01-19T18:38:41.804Z,15.47
2023-01-19T18:41:11.996Z,13.87
2023-01-19T18:43:38.822Z,14.63
2023-01-19T18:46:06.488Z,15.40
2023-01-19T18:48:33.783Z,15.07
2023-01-19T18:51:03.495Z,15.73
2023-01-19T18:53:31.928Z,13.67
2023-01-19T18:56:00.239Z,14.10
2023-01-19T18:58:29.134Z,13.63
2023-01-19T19:00:56.421Z,15.00
2023-01-19T19:03:23.269Z,16.37
2023-01-19T19:05:50.155Z,14.77
2023-01-19T19:08:17.521Z,15.40
2023-01-19T19:10:44.433Z,14.70
2023-01-19T19:13:16.188Z,15.73
2023-01-19T19:15:44.388Z,15.07
2023-01-19T19:18:13.756Z,15.87
2023-01-19T19:20:43.072Z,15.77
2023-01-19T19:23:11.225Z,15.20
2023-01-19T19:25:38.476Z,14.67
2023-01-19T19:28:05.413Z,14.00
2023-01-19T19:30:34.607Z,14.87
2023-01-19T19:33:01.657Z,14.73
2023-01-19T19:35:28.450Z,15.90
2023-01-19T19:37:57.645Z,15.47
2023-01-19T19:40:27.810Z,14.93
2023-01-19T19:42:55.890Z,15.47
2023-01-19T19:45:24.837Z,14.93
2023-01-19T19:47:51.709Z,16.00
2023-01-19T19:50:18.776Z,15.10
2023-01-19T19:52:45.559Z,14.00
2023-01-19T19:55:12.731Z,14.87
2023-01-19T19:57:40.123Z,15.43
2023-01-19T20:00:07.801Z,16.40
2023-01-19T20:02:34.594Z,16.40
2023-01-19T20:05:01.378Z,15.00
2023-01-19T20:07:28.160Z,16.80
2023-01-19T20:09:55.154Z,15.83
2023-01-19T20:12:22.198Z,15.47
2023-01-19T20:14:48.988Z,16.33
2023-01-19T20:17:15.843Z,15.97
2023-01-19T20:19:43.786Z,15.87
2023-01-19T20:22:10.548Z,14.93
2023-01-19T20:24:37.350Z,15.07
2023-01-19T20:27:04.308Z,15.30
2023-01-19T20:29:31.086Z,16.90
2023-01-19T20:31:57.921Z,16.43
2023-01-19T20:34:32.102Z,17.30
2023-01-19T20:37:01.575Z,16.40
2023-01-19T20:39:30.107Z,15.87
2023-01-19T20:41:57.015Z,16.70
2023-01-19T20:44:26.259Z,15.57
2023-01-19T20:46:53.761Z,15.40
2023-01-19T20:49:20.593Z,16.00
2023-01-19T20:51:47.741Z,14.27
2023-01-19T20:54:18.439Z,14.07
2023-01-19T20:56:45.410Z,14.30
2023-01-19T20:59:13.253Z,15.67
2023-01-19T21:01:41.060Z,14.93
2023-01-19T21:04:08.623Z,15.03
2023-01-19T21:06:35.898Z,15.17
2023-01-19T21:09:03.920Z,15.00
2023-01-19T21:11:31.550Z,13.90
2023-01-19T21:13:58.615Z,14.43
2023-01-19T21:16:30.802Z,14.57
2023-01-19T21:18:57.600Z,15.10
2023-01-19T21:21:30.879Z,15.53
2023-01-19T21:24:00.194Z,15.57
2023-01-19T21:26:29.882Z,15.50
2023-01-19T21:29:01.568Z,15.77
2023-01-19T21:31:28.892Z,15.27
2023-01-19T21:33:57.367Z,16.53
2023-01-19T21:36:24.829Z,15.90
2023-01-19T21:38:52.331Z,16.17
2023-01-19T21:41:19.385Z,15.73
2023-01-19T21:43:47.782Z,16.30
2023-01-19T21:46:20.671Z,17.10
2023-01-19T21:48:48.129Z,17.30
2023-01-19T21:51:15.271Z,16.97
2023-01-19T21:53:42.486Z,16.87
2023-01-19T21:56:10.488Z,16.50
2023-01-19T21:58:37.729Z,16.77
2023-01-19T22:01:09.735Z,17.23
2023-01-19T22:03:36.734Z,15.67
2023-01-19T22:06:08.987Z,17.37
2023-01-19T22:08:35.961Z,16.03
2023-01-19T22:11:13.816Z,16.63
2023-01-19T22:13:40.887Z,15.73
2023-01-19T22:16:19.321Z,18.30
2023-01-19T22:18:51.068Z,16.90
2023-01-19T22:21:26.605Z,17.47
2023-01-19T22:23:59.083Z,16.73
2023-01-19T22:26:27.044Z,16.63
2023-01-19T22:28:59.123Z,19.07
2023-01-19T22:31:27.334Z,18.50
2023-01-19T22:33:54.935Z,17.17
2023-01-19T22:36:30.457Z,17.70
2023-01-19T22:38:59.669Z,18.03
2023-01-19T22:41:32.344Z,17.63
2023-01-19T22:44:01.463Z,16.57
2023-01-19T22:46:31.173Z,17.53
2023-01-19T22:48:58.657Z,18.90
2023-01-19T22:51:26.939Z,17.37
2023-01-19T22:53:53.839Z,17.60
2023-01-19T22:56:25.355Z,17.53
2023-01-19T22:58:53.049Z,16.70
2023-01-19T23:01:25.393Z,18.47
2023-01-19T23:03:53.333Z,17.17
2023-01-19T23:06:23.146Z,17.47
2023-01-19T23:08:50.721Z,17.90
2023-01-19T23:11:22.938Z,16.30
2023-01-19T23:13:50.782Z,15.43
2023-01-19T23:16:18.087Z,17.13
2023-01-19T23:18:45.354Z,14.27
2023-01-19T23:21:18.096Z,15.90
2023-01-19T23:23:45.945Z,17.17
2023-01-19T23:26:17.780Z,16.60
2023-01-19T23:28:45.406Z,18.20
2023-01-19T23:31:15.103Z,15.00
2023-01-19T23:33:43.989Z,15.23
2023-01-19T23:36:12.053Z,15.73
2023-01-19T23:38:39.548Z,16.73
2023-01-19T23:41:06.730Z,15.87
2023-01-19T23:43:33.727Z,14.47
2023-01-19T23:46:08.563Z,15.83
2023-01-19T23:48:36.360Z,15.43
2023-01-19T23:51:11.538Z,15.87
2023-01-19T23:53:38.577Z,14.20
2023-01-19T23:56:19.173Z,14.20
2023-01-19T23:58:48.111Z,13.33
